sensor_id;sensor_type;location;lat;lon;timestamp;temperature;humidity
23291;DHT22;11814;44.686;10.842;2023-11-19T00:00:29;7.80;88.90
23291;DHT22;11814;44.686;10.842;2023-11-19T00:02:55;7.80;89.30
23291;DHT22;11814;44.686;10.842;2023-11-19T00:05:20;7.80;89.40
23291;DHT22;11814;44.686;10.842;2023-11-19T00:07:46;7.80;89.40
23291;DHT22;11814;44.686;10.842;2023-11-19T00:10:14;7.80;89.40
23291;DHT22;11814;44.686;10.842;2023-11-19T00:12:44;7.80;89.30
23291;DHT22;11814;44.686;10.842;2023-11-19T00:15:10;7.80;89.40
23291;DHT22;11814;44.686;10.842;2023-11-19T00:17:40;7.70;89.50
23291;DHT22;11814;44.686;10.842;2023-11-19T00:20:16;7.70;89.60
23291;DHT22;11814;44.686;10.842;2023-11-19T00:22:42;7.70;89.80
23291;DHT22;11814;44.686;10.842;2023-11-19T00:25:08;7.70;89.70
23291;DHT22;11814;44.686;10.842;2023-11-19T00:27:34;7.70;89.50
23291;DHT22;11814;44.686;10.842;2023-11-19T00:30:00;7.70;89.40
23291;DHT22;11814;44.686;10.842;2023-11-19T00:32:26;7.70;89.50
23291;DHT22;11814;44.686;10.842;2023-11-19T00:34:52;7.70;89.60
23291;DHT22;11814;44.686;10.842;2023-11-19T00:37:17;7.70;89.80
23291;DHT22;11814;44.686;10.842;2023-11-19T00:39:43;7.70;89.80
23291;DHT22;11814;44.686;10.842;2023-11-19T00:42:09;7.70;89.80
23291;DHT22;11814;44.686;10.842;2023-11-19T00:44:36;7.60;89.70
23291;DHT22;11814;44.686;10.842;2023-11-19T00:47:02;7.60;89.90
23291;DHT22;11814;44.686;10.842;2023-11-19T00:49:28;7.70;90.00
23291;DHT22;11814;44.686;10.842;2023-11-19T00:51:53;7.70;90.10
23291;DHT22;11814;44.686;10.842;2023-11-19T00:54:19;7.70;90.00
23291;DHT22;11814;44.686;10.842;2023-11-19T00:56:45;7.70;90.00
23291;DHT22;11814;44.686;10.842;2023-11-19T00:59:10;7.70;90.00
23291;DHT22;11814;44.686;10.842;2023-11-19T01:01:36;7.70;90.10
23291;DHT22;11814;44.686;10.842;2023-11-19T01:04:02;7.70;90.20
23291;DHT22;11814;44.686;10.842;2023-11-19T01:06:31;7.70;90.10
23291;DHT22;11814;44.686;10.842;2023-11-19T01:08:58;7.70;90.10
23291;DHT22;11814;44.686;10.842;2023-11-19T01:11:24;7.70;90.10
23291;DHT22;11814;44.686;10.842;2023-11-19T01:13:51;7.70;90.00
23291;DHT22;11814;44.686;10.842;2023-11-19T01:16:17;7.70;90.20
23291;DHT22;11814;44.686;10.842;2023-11-19T01:18:44;7.60;90.40
23291;DHT22;11814;44.686;10.842;2023-11-19T01:21:10;7.60;90.40
23291;DHT22;11814;44.686;10.842;2023-11-19T01:23:36;7.60;90.50
23291;DHT22;11814;44.686;10.842;2023-11-19T01:26:03;7.70;90.50
23291;DHT22;11814;44.686;10.842;2023-11-19T01:28:28;7.60;90.40
23291;DHT22;11814;44.686;10.842;2023-11-19T01:30:54;7.60;90.60
23291;DHT22;11814;44.686;10.842;2023-11-19T01:33:20;7.50;90.70
23291;DHT22;11814;44.686;10.842;2023-11-19T01:35:46;7.60;90.80
23291;DHT22;11814;44.686;10.842;2023-11-19T01:38:12;7.60;90.90
23291;DHT22;11814;44.686;10.842;2023-11-19T01:40:38;7.50;91.00
23291;DHT22;11814;44.686;10.842;2023-11-19T01:43:03;7.50;90.90
23291;DHT22;11814;44.686;10.842;2023-11-19T01:45:30;7.50;91.00
23291;DHT22;11814;44.686;10.842;2023-11-19T01:47:58;7.40;91.10
23291;DHT22;11814;44.686;10.842;2023-11-19T01:50:24;7.40;91.10
23291;DHT22;11814;44.686;10.842;2023-11-19T01:52:53;7.30;91.10
23291;DHT22;11814;44.686;10.842;2023-11-19T01:55:20;7.30;91.20
23291;DHT22;11814;44.686;10.842;2023-11-19T01:57:47;7.20;91.20
23291;DHT22;11814;44.686;10.842;2023-11-19T02:00:15;7.20;91.40
23291;DHT22;11814;44.686;10.842;2023-11-19T02:02:42;7.20;91.60
23291;DHT22;11814;44.686;10.842;2023-11-19T02:05:10;7.20;91.60
23291;DHT22;11814;44.686;10.842;2023-11-19T02:07:36;7.10;91.60
23291;DHT22;11814;44.686;10.842;2023-11-19T02:10:02;7.10;91.70
23291;DHT22;11814;44.686;10.842;2023-11-19T02:12:28;7.10;91.80
23291;DHT22;11814;44.686;10.842;2023-11-19T02:14:54;7.10;92.00
23291;DHT22;11814;44.686;10.842;2023-11-19T02:17:30;7.10;92.00
23291;DHT22;11814;44.686;10.842;2023-11-19T02:20:00;7.00;92.10
23291;DHT22;11814;44.686;10.842;2023-11-19T02:22:26;6.90;92.10
23291;DHT22;11814;44.686;10.842;2023-11-19T02:24:59;6.90;92.20
23291;DHT22;11814;44.686;10.842;2023-11-19T02:30:11;6.90;92.40
23291;DHT22;11814;44.686;10.842;2023-11-19T02:32:41;6.90;92.40
23291;DHT22;11814;44.686;10.842;2023-11-19T02:35:07;6.90;92.60
23291;DHT22;11814;44.686;10.842;2023-11-19T02:37:38;6.90;92.60
23291;DHT22;11814;44.686;10.842;2023-11-19T02:40:04;7.00;92.80
23291;DHT22;11814;44.686;10.842;2023-11-19T02:42:31;7.00;92.80
23291;DHT22;11814;44.686;10.842;2023-11-19T02:44:57;6.90;92.70
23291;DHT22;11814;44.686;10.842;2023-11-19T02:47:22;6.90;92.70
23291;DHT22;11814;44.686;10.842;2023-11-19T02:49:49;6.90;92.80
23291;DHT22;11814;44.686;10.842;2023-11-19T02:52:15;6.90;92.80
23291;DHT22;11814;44.686;10.842;2023-11-19T02:54:42;6.90;92.80
23291;DHT22;11814;44.686;10.842;2023-11-19T02:57:08;7.00;92.80
23291;DHT22;11814;44.686;10.842;2023-11-19T02:59:39;6.90;92.70
23291;DHT22;11814;44.686;10.842;2023-11-19T03:02:07;6.90;92.80
23291;DHT22;11814;44.686;10.842;2023-11-19T03:04:39;6.90;93.00
23291;DHT22;11814;44.686;10.842;2023-11-19T03:07:06;6.90;93.10
23291;DHT22;11814;44.686;10.842;2023-11-19T03:09:33;6.90;93.40
23291;DHT22;11814;44.686;10.842;2023-11-19T03:12:00;6.90;93.70
23291;DHT22;11814;44.686;10.842;2023-11-19T03:14:25;6.90;94.00
23291;DHT22;11814;44.686;10.842;2023-11-19T03:16:51;7.00;94.20
23291;DHT22;11814;44.686;10.842;2023-11-19T03:19:17;7.00;94.60
23291;DHT22;11814;44.686;10.842;2023-11-19T03:21:43;7.00;94.90
23291;DHT22;11814;44.686;10.842;2023-11-19T03:24:12;7.10;95.30
23291;DHT22;11814;44.686;10.842;2023-11-19T03:26:38;7.00;94.90
23291;DHT22;11814;44.686;10.842;2023-11-19T03:29:04;7.00;94.90
23291;DHT22;11814;44.686;10.842;2023-11-19T03:31:30;7.00;95.20
23291;DHT22;11814;44.686;10.842;2023-11-19T03:33:56;6.90;95.80
23291;DHT22;11814;44.686;10.842;2023-11-19T03:36:22;6.90;96.40
23291;DHT22;11814;44.686;10.842;2023-11-19T03:38:48;6.90;96.90
23291;DHT22;11814;44.686;10.842;2023-11-19T03:41:14;7.00;97.40
23291;DHT22;11814;44.686;10.842;2023-11-19T03:43:40;6.90;98.00
23291;DHT22;11814;44.686;10.842;2023-11-19T03:46:17;6.90;98.70
23291;DHT22;11814;44.686;10.842;2023-11-19T03:48:43;7.00;99.40
23291;DHT22;11814;44.686;10.842;2023-11-19T03:51:09;7.00;99.80
23291;DHT22;11814;44.686;10.842;2023-11-19T03:53:34;7.00;99.80
23291;DHT22;11814;44.686;10.842;2023-11-19T03:56:01;7.00;99.80
23291;DHT22;11814;44.686;10.842;2023-11-19T03:58:26;6.90;99.90
23291;DHT22;11814;44.686;10.842;2023-11-19T04:00:52;6.90;99.90
23291;DHT22;11814;44.686;10.842;2023-11-19T04:03:18;6.90;99.90
23291;DHT22;11814;44.686;10.842;2023-11-19T04:05:45;6.90;99.90
23291;DHT22;11814;44.686;10.842;2023-11-19T04:08:10;6.90;99.90
23291;DHT22;11814;44.686;10.842;2023-11-19T04:10:36;6.90;99.90
23291;DHT22;11814;44.686;10.842;2023-11-19T04:13:02;6.80;99.90
23291;DHT22;11814;44.686;10.842;2023-11-19T04:15:27;6.80;99.90
23291;DHT22;11814;44.686;10.842;2023-11-19T04:17:53;6.80;99.90
23291;DHT22;11814;44.686;10.842;2023-11-19T04:20:18;6.80;99.90
23291;DHT22;11814;44.686;10.842;2023-11-19T04:22:44;6.80;99.90
23291;DHT22;11814;44.686;10.842;2023-11-19T04:25:10;6.80;99.90
23291;DHT22;11814;44.686;10.842;2023-11-19T04:27:36;6.80;99.90
23291;DHT22;11814;44.686;10.842;2023-11-19T04:30:02;6.80;99.90
23291;DHT22;11814;44.686;10.842;2023-11-19T04:32:29;6.80;99.90
23291;DHT22;11814;44.686;10.842;2023-11-19T04:34:54;6.80;99.90
23291;DHT22;11814;44.686;10.842;2023-11-19T04:37:20;6.80;99.90
23291;DHT22;11814;44.686;10.842;2023-11-19T04:39:46;6.70;99.90
23291;DHT22;11814;44.686;10.842;2023-11-19T04:42:11;6.70;99.90
23291;DHT22;11814;44.686;10.842;2023-11-19T04:44:37;6.70;99.90
23291;DHT22;11814;44.686;10.842;2023-11-19T04:47:03;6.60;99.90
23291;DHT22;11814;44.686;10.842;2023-11-19T04:49:29;6.60;99.90
23291;DHT22;11814;44.686;10.842;2023-11-19T04:51:55;6.50;99.90
23291;DHT22;11814;44.686;10.842;2023-11-19T04:54:21;6.50;99.90
23291;DHT22;11814;44.686;10.842;2023-11-19T04:56:47;6.60;99.90
23291;DHT22;11814;44.686;10.842;2023-11-19T04:59:13;6.50;99.90
23291;DHT22;11814;44.686;10.842;2023-11-19T05:01:39;6.60;99.90
23291;DHT22;11814;44.686;10.842;2023-11-19T05:04:04;6.50;99.90
23291;DHT22;11814;44.686;10.842;2023-11-19T05:06:31;6.50;99.90
23291;DHT22;11814;44.686;10.842;2023-11-19T05:08:59;6.40;99.90
23291;DHT22;11814;44.686;10.842;2023-11-19T05:11:26;6.40;99.90
23291;DHT22;11814;44.686;10.842;2023-11-19T05:13:53;6.40;99.90
23291;DHT22;11814;44.686;10.842;2023-11-19T05:16:19;6.30;99.90
23291;DHT22;11814;44.686;10.842;2023-11-19T05:18:46;6.30;99.90
23291;DHT22;11814;44.686;10.842;2023-11-19T05:21:12;6.30;99.90
23291;DHT22;11814;44.686;10.842;2023-11-19T05:23:38;6.40;99.90
23291;DHT22;11814;44.686;10.842;2023-11-19T05:26:04;6.40;99.90
23291;DHT22;11814;44.686;10.842;2023-11-19T05:28:30;6.40;99.90
23291;DHT22;11814;44.686;10.842;2023-11-19T05:30:56;6.40;99.90
23291;DHT22;11814;44.686;10.842;2023-11-19T05:33:22;6.40;99.90
23291;DHT22;11814;44.686;10.842;2023-11-19T05:35:47;6.50;99.90
23291;DHT22;11814;44.686;10.842;2023-11-19T05:38:13;6.50;99.90
23291;DHT22;11814;44.686;10.842;2023-11-19T05:40:40;6.50;99.90
23291;DHT22;11814;44.686;10.842;2023-11-19T05:43:06;6.60;99.90
23291;DHT22;11814;44.686;10.842;2023-11-19T05:45:32;6.60;99.90
23291;DHT22;11814;44.686;10.842;2023-11-19T05:47:58;6.60;99.90
23291;DHT22;11814;44.686;10.842;2023-11-19T05:50:23;6.70;99.90
23291;DHT22;11814;44.686;10.842;2023-11-19T05:52:49;6.60;99.90
23291;DHT22;11814;44.686;10.842;2023-11-19T05:55:15;6.60;99.90
23291;DHT22;11814;44.686;10.842;2023-11-19T05:57:41;6.60;99.90
23291;DHT22;11814;44.686;10.842;2023-11-19T06:00:07;6.60;99.90
23291;DHT22;11814;44.686;10.842;2023-11-19T06:02:34;6.60;99.90
23291;DHT22;11814;44.686;10.842;2023-11-19T06:05:00;6.60;99.90
23291;DHT22;11814;44.686;10.842;2023-11-19T06:07:26;6.60;99.90
23291;DHT22;11814;44.686;10.842;2023-11-19T06:09:52;6.60;99.90
23291;DHT22;11814;44.686;10.842;2023-11-19T06:12:18;6.60;99.90
23291;DHT22;11814;44.686;10.842;2023-11-19T06:14:43;6.60;99.90
23291;DHT22;11814;44.686;10.842;2023-11-19T06:17:09;6.60;99.90
23291;DHT22;11814;44.686;10.842;2023-11-19T06:19:36;6.60;99.90
23291;DHT22;11814;44.686;10.842;2023-11-19T06:22:03;6.60;99.90
23291;DHT22;11814;44.686;10.842;2023-11-19T06:24:29;6.60;99.90
23291;DHT22;11814;44.686;10.842;2023-11-19T06:26:54;6.60;99.90
23291;DHT22;11814;44.686;10.842;2023-11-19T06:29:20;6.60;99.90
23291;DHT22;11814;44.686;10.842;2023-11-19T06:31:46;6.70;99.90
23291;DHT22;11814;44.686;10.842;2023-11-19T06:34:15;6.70;99.90
23291;DHT22;11814;44.686;10.842;2023-11-19T06:36:41;6.70;99.90
23291;DHT22;11814;44.686;10.842;2023-11-19T06:39:09;6.70;99.90
23291;DHT22;11814;44.686;10.842;2023-11-19T06:41:36;6.70;99.90
23291;DHT22;11814;44.686;10.842;2023-11-19T06:44:03;6.60;99.90
23291;DHT22;11814;44.686;10.842;2023-11-19T06:46:30;6.60;99.90
23291;DHT22;11814;44.686;10.842;2023-11-19T06:48:56;6.60;99.90
23291;DHT22;11814;44.686;10.842;2023-11-19T06:51:22;6.70;99.90
23291;DHT22;11814;44.686;10.842;2023-11-19T06:53:50;6.80;99.90
23291;DHT22;11814;44.686;10.842;2023-11-19T06:56:22;6.80;99.90
23291;DHT22;11814;44.686;10.842;2023-11-19T06:58:48;6.80;99.90
23291;DHT22;11814;44.686;10.842;2023-11-19T07:01:15;6.70;99.90
23291;DHT22;11814;44.686;10.842;2023-11-19T07:03:41;6.80;99.90
23291;DHT22;11814;44.686;10.842;2023-11-19T07:06:06;6.90;99.90
23291;DHT22;11814;44.686;10.842;2023-11-19T07:08:32;6.80;99.90
23291;DHT22;11814;44.686;10.842;2023-11-19T07:10:58;6.80;99.90
23291;DHT22;11814;44.686;10.842;2023-11-19T07:13:23;6.90;99.90
23291;DHT22;11814;44.686;10.842;2023-11-19T07:15:49;7.10;99.90
23291;DHT22;11814;44.686;10.842;2023-11-19T07:18:15;7.30;99.90
23291;DHT22;11814;44.686;10.842;2023-11-19T07:20:40;7.60;99.90
23291;DHT22;11814;44.686;10.842;2023-11-19T07:23:06;7.70;99.90
23291;DHT22;11814;44.686;10.842;2023-11-19T07:25:32;7.80;99.90
23291;DHT22;11814;44.686;10.842;2023-11-19T07:27:57;7.80;99.90
23291;DHT22;11814;44.686;10.842;2023-11-19T07:30:23;8.00;99.90
23291;DHT22;11814;44.686;10.842;2023-11-19T07:32:48;8.10;99.90
23291;DHT22;11814;44.686;10.842;2023-11-19T07:35:14;8.20;99.90
23291;DHT22;11814;44.686;10.842;2023-11-19T07:37:44;8.10;99.90
23291;DHT22;11814;44.686;10.842;2023-11-19T07:40:11;8.20;99.90
23291;DHT22;11814;44.686;10.842;2023-11-19T07:42:37;8.40;99.90
23291;DHT22;11814;44.686;10.842;2023-11-19T07:45:03;8.70;99.90
23291;DHT22;11814;44.686;10.842;2023-11-19T07:47:31;8.90;99.90
23291;DHT22;11814;44.686;10.842;2023-11-19T07:49:56;9.30;99.90
23291;DHT22;11814;44.686;10.842;2023-11-19T07:52:22;9.60;98.90
23291;DHT22;11814;44.686;10.842;2023-11-19T07:54:48;9.70;97.30
23291;DHT22;11814;44.686;10.842;2023-11-19T07:57:14;9.80;96.90
23291;DHT22;11814;44.686;10.842;2023-11-19T07:59:40;9.90;96.30
23291;DHT22;11814;44.686;10.842;2023-11-19T08:02:06;10.10;95.90
23291;DHT22;11814;44.686;10.842;2023-11-19T08:04:32;10.20;95.70
23291;DHT22;11814;44.686;10.842;2023-11-19T08:06:57;10.50;95.80
23291;DHT22;11814;44.686;10.842;2023-11-19T08:09:23;11.10;95.70
23291;DHT22;11814;44.686;10.842;2023-11-19T08:11:48;11.70;94.10
23291;DHT22;11814;44.686;10.842;2023-11-19T08:14:15;12.00;92.30
23291;DHT22;11814;44.686;10.842;2023-11-19T08:16:40;12.30;91.50
23291;DHT22;11814;44.686;10.842;2023-11-19T08:19:06;12.50;90.70
23291;DHT22;11814;44.686;10.842;2023-11-19T08:21:33;12.60;89.10
23291;DHT22;11814;44.686;10.842;2023-11-19T08:23:59;12.50;87.00
23291;DHT22;11814;44.686;10.842;2023-11-19T08:26:25;12.50;86.10
23291;DHT22;11814;44.686;10.842;2023-11-19T08:28:50;12.50;85.90
23291;DHT22;11814;44.686;10.842;2023-11-19T08:31:17;12.40;85.50
23291;DHT22;11814;44.686;10.842;2023-11-19T08:33:43;12.50;85.10
23291;DHT22;11814;44.686;10.842;2023-11-19T08:36:08;12.50;84.30
23291;DHT22;11814;44.686;10.842;2023-11-19T08:38:40;12.70;84.10
23291;DHT22;11814;44.686;10.842;2023-11-19T08:41:06;12.80;84.50
23291;DHT22;11814;44.686;10.842;2023-11-19T08:43:31;13.00;83.90
23291;DHT22;11814;44.686;10.842;2023-11-19T08:45:57;13.10;82.40
23291;DHT22;11814;44.686;10.842;2023-11-19T08:48:22;13.20;80.80
23291;DHT22;11814;44.686;10.842;2023-11-19T08:50:48;13.20;79.30
23291;DHT22;11814;44.686;10.842;2023-11-19T08:53:14;13.20;78.80
23291;DHT22;11814;44.686;10.842;2023-11-19T08:55:39;13.30;78.40
23291;DHT22;11814;44.686;10.842;2023-11-19T08:58:05;13.50;78.70
23291;DHT22;11814;44.686;10.842;2023-11-19T09:00:31;13.80;78.60
23291;DHT22;11814;44.686;10.842;2023-11-19T09:02:58;14.20;77.40
23291;DHT22;11814;44.686;10.842;2023-11-19T09:05:23;14.70;76.60
23291;DHT22;11814;44.686;10.842;2023-11-19T09:07:49;15.10;75.50
23291;DHT22;11814;44.686;10.842;2023-11-19T09:10:15;15.60;73.50
23291;DHT22;11814;44.686;10.842;2023-11-19T09:12:41;15.80;70.90
23291;DHT22;11814;44.686;10.842;2023-11-19T09:15:07;15.80;68.60
23291;DHT22;11814;44.686;10.842;2023-11-19T09:17:33;15.80;67.30
23291;DHT22;11814;44.686;10.842;2023-11-19T09:19:58;15.70;66.80
23291;DHT22;11814;44.686;10.842;2023-11-19T09:22:24;15.70;66.40
23291;DHT22;11814;44.686;10.842;2023-11-19T09:24:50;15.60;66.20
23291;DHT22;11814;44.686;10.842;2023-11-19T09:27:16;15.60;65.90
23291;DHT22;11814;44.686;10.842;2023-11-19T09:29:42;15.70;66.10
23291;DHT22;11814;44.686;10.842;2023-11-19T09:32:08;15.80;66.40
23291;DHT22;11814;44.686;10.842;2023-11-19T09:34:34;15.90;66.90
23291;DHT22;11814;44.686;10.842;2023-11-19T09:36:59;16.10;66.60
23291;DHT22;11814;44.686;10.842;2023-11-19T09:39:25;16.40;66.00
23291;DHT22;11814;44.686;10.842;2023-11-19T09:41:51;16.50;65.10
23291;DHT22;11814;44.686;10.842;2023-11-19T09:44:17;16.50;64.60
23291;DHT22;11814;44.686;10.842;2023-11-19T09:46:44;16.30;64.00
23291;DHT22;11814;44.686;10.842;2023-11-19T09:49:11;16.10;64.30
23291;DHT22;11814;44.686;10.842;2023-11-19T09:51:38;16.00;64.50
23291;DHT22;11814;44.686;10.842;2023-11-19T09:54:04;15.90;64.40
23291;DHT22;11814;44.686;10.842;2023-11-19T09:56:30;15.90;64.80
23291;DHT22;11814;44.686;10.842;2023-11-19T09:58:59;15.80;65.00
23291;DHT22;11814;44.686;10.842;2023-11-19T10:01:25;15.80;65.00
23291;DHT22;11814;44.686;10.842;2023-11-19T10:03:54;15.60;64.80
23291;DHT22;11814;44.686;10.842;2023-11-19T10:06:20;15.50;65.10
23291;DHT22;11814;44.686;10.842;2023-11-19T10:08:47;15.50;65.50
23291;DHT22;11814;44.686;10.842;2023-11-19T10:11:12;15.60;65.80
23291;DHT22;11814;44.686;10.842;2023-11-19T10:13:39;15.90;67.00
23291;DHT22;11814;44.686;10.842;2023-11-19T10:16:12;16.00;66.70
23291;DHT22;11814;44.686;10.842;2023-11-19T10:18:47;16.20;65.60
23291;DHT22;11814;44.686;10.842;2023-11-19T10:21:14;16.40;65.10
23291;DHT22;11814;44.686;10.842;2023-11-19T10:24:00;16.50;64.90
23291;DHT22;11814;44.686;10.842;2023-11-19T10:26:27;16.40;64.60
23291;DHT22;11814;44.686;10.842;2023-11-19T10:28:55;16.30;64.40
23291;DHT22;11814;44.686;10.842;2023-11-19T10:31:21;16.20;64.30
23291;DHT22;11814;44.686;10.842;2023-11-19T10:33:50;16.20;64.60
23291;DHT22;11814;44.686;10.842;2023-11-19T10:36:17;16.10;65.00
23291;DHT22;11814;44.686;10.842;2023-11-19T10:38:55;16.20;65.40
23291;DHT22;11814;44.686;10.842;2023-11-19T10:41:40;16.60;64.80
23291;DHT22;11814;44.686;10.842;2023-11-19T10:44:06;16.70;64.60
23291;DHT22;11814;44.686;10.842;2023-11-19T10:46:39;16.80;64.30
23291;DHT22;11814;44.686;10.842;2023-11-19T10:49:06;16.70;63.60
23291;DHT22;11814;44.686;10.842;2023-11-19T10:51:32;16.70;64.60
23291;DHT22;11814;44.686;10.842;2023-11-19T10:54:02;16.70;64.10
23291;DHT22;11814;44.686;10.842;2023-11-19T10:56:32;16.70;64.00
23291;DHT22;11814;44.686;10.842;2023-11-19T10:58:59;16.60;63.50
23291;DHT22;11814;44.686;10.842;2023-11-19T11:01:29;16.70;63.60
23291;DHT22;11814;44.686;10.842;2023-11-19T11:03:59;16.70;63.70
23291;DHT22;11814;44.686;10.842;2023-11-19T11:06:27;16.70;63.60
23291;DHT22;11814;44.686;10.842;2023-11-19T11:08:54;16.70;63.70
23291;DHT22;11814;44.686;10.842;2023-11-19T11:11:20;16.70;63.60
23291;DHT22;11814;44.686;10.842;2023-11-19T11:13:50;16.60;63.80
23291;DHT22;11814;44.686;10.842;2023-11-19T11:16:18;16.60;63.60
23291;DHT22;11814;44.686;10.842;2023-11-19T11:18:47;16.70;64.00
23291;DHT22;11814;44.686;10.842;2023-11-19T11:21:21;16.80;63.90
23291;DHT22;11814;44.686;10.842;2023-11-19T11:37:30;17.50;63.00
23291;DHT22;11814;44.686;10.842;2023-11-19T11:39:58;17.80;62.10
23291;DHT22;11814;44.686;10.842;2023-11-19T11:45:13;18.20;60.00
23291;DHT22;11814;44.686;10.842;2023-11-19T11:55:36;19.30;58.50
23291;DHT22;11814;44.686;10.842;2023-11-19T11:58:03;19.40;57.80
23291;DHT22;11814;44.686;10.842;2023-11-19T12:00:30;19.50;57.30
23291;DHT22;11814;44.686;10.842;2023-11-19T12:02:56;19.60;57.40
23291;DHT22;11814;44.686;10.842;2023-11-19T12:05:22;19.70;57.00
23291;DHT22;11814;44.686;10.842;2023-11-19T12:07:55;19.80;56.70
23291;DHT22;11814;44.686;10.842;2023-11-19T12:10:20;19.70;56.70
23291;DHT22;11814;44.686;10.842;2023-11-19T12:12:47;19.50;56.70
23291;DHT22;11814;44.686;10.842;2023-11-19T12:15:13;19.40;56.80
23291;DHT22;11814;44.686;10.842;2023-11-19T12:17:47;19.30;56.80
23291;DHT22;11814;44.686;10.842;2023-11-19T12:20:15;19.20;57.10
23291;DHT22;11814;44.686;10.842;2023-11-19T12:22:42;19.10;57.40
23291;DHT22;11814;44.686;10.842;2023-11-19T12:25:10;19.10;57.60
23291;DHT22;11814;44.686;10.842;2023-11-19T12:27:46;19.00;57.80
23291;DHT22;11814;44.686;10.842;2023-11-19T12:30:17;19.00;58.00
23291;DHT22;11814;44.686;10.842;2023-11-19T12:32:45;18.90;58.30
23291;DHT22;11814;44.686;10.842;2023-11-19T12:35:11;18.80;58.50
23291;DHT22;11814;44.686;10.842;2023-11-19T12:37:45;18.70;58.30
23291;DHT22;11814;44.686;10.842;2023-11-19T12:42:55;18.60;58.00
23291;DHT22;11814;44.686;10.842;2023-11-19T12:45:21;18.50;58.20
23291;DHT22;11814;44.686;10.842;2023-11-19T12:47:49;18.50;58.30
23291;DHT22;11814;44.686;10.842;2023-11-19T12:50:15;18.40;58.20
23291;DHT22;11814;44.686;10.842;2023-11-19T12:52:57;18.30;57.80
23291;DHT22;11814;44.686;10.842;2023-11-19T12:55:28;18.20;57.80
23291;DHT22;11814;44.686;10.842;2023-11-19T12:57:54;18.10;58.60
23291;DHT22;11814;44.686;10.842;2023-11-19T13:00:25;18.10;58.80
23291;DHT22;11814;44.686;10.842;2023-11-19T13:02:53;18.20;59.00
23291;DHT22;11814;44.686;10.842;2023-11-19T13:05:35;18.10;58.80
23291;DHT22;11814;44.686;10.842;2023-11-19T13:08:06;18.10;58.40
23291;DHT22;11814;44.686;10.842;2023-11-19T13:10:33;18.10;58.00
23291;DHT22;11814;44.686;10.842;2023-11-19T13:13:08;18.00;57.60
23291;DHT22;11814;44.686;10.842;2023-11-19T13:15:35;18.00;56.90
23291;DHT22;11814;44.686;10.842;2023-11-19T13:18:02;17.90;57.00
23291;DHT22;11814;44.686;10.842;2023-11-19T13:20:29;18.00;57.50
23291;DHT22;11814;44.686;10.842;2023-11-19T13:22:59;17.90;58.10
23291;DHT22;11814;44.686;10.842;2023-11-19T13:25:28;17.90;58.60
23291;DHT22;11814;44.686;10.842;2023-11-19T13:27:55;17.90;58.80
23291;DHT22;11814;44.686;10.842;2023-11-19T13:30:21;17.80;59.10
23291;DHT22;11814;44.686;10.842;2023-11-19T13:32:51;17.80;59.60
23291;DHT22;11814;44.686;10.842;2023-11-19T13:35:18;17.80;59.80
23291;DHT22;11814;44.686;10.842;2023-11-19T13:37:44;17.70;60.20
23291;DHT22;11814;44.686;10.842;2023-11-19T13:40:11;17.70;60.70
23291;DHT22;11814;44.686;10.842;2023-11-19T13:42:51;17.70;61.10
23291;DHT22;11814;44.686;10.842;2023-11-19T13:45:17;17.60;61.70
23291;DHT22;11814;44.686;10.842;2023-11-19T13:47:45;17.60;62.20
23291;DHT22;11814;44.686;10.842;2023-11-19T13:50:13;17.60;62.30
23291;DHT22;11814;44.686;10.842;2023-11-19T13:52:40;17.50;62.50
23291;DHT22;11814;44.686;10.842;2023-11-19T13:55:08;17.50;62.90
23291;DHT22;11814;44.686;10.842;2023-11-19T13:57:35;17.50;63.10
23291;DHT22;11814;44.686;10.842;2023-11-19T14:00:05;17.30;63.30
23291;DHT22;11814;44.686;10.842;2023-11-19T14:02:35;17.40;63.60
23291;DHT22;11814;44.686;10.842;2023-11-19T14:05:00;17.40;63.70
23291;DHT22;11814;44.686;10.842;2023-11-19T14:07:27;17.30;63.80
23291;DHT22;11814;44.686;10.842;2023-11-19T14:09:53;17.30;64.10
23291;DHT22;11814;44.686;10.842;2023-11-19T14:12:19;17.30;64.50
23291;DHT22;11814;44.686;10.842;2023-11-19T14:14:45;17.20;64.80
23291;DHT22;11814;44.686;10.842;2023-11-19T14:17:11;17.10;65.70
23291;DHT22;11814;44.686;10.842;2023-11-19T14:19:37;17.10;65.30
23291;DHT22;11814;44.686;10.842;2023-11-19T14:22:04;17.00;65.40
23291;DHT22;11814;44.686;10.842;2023-11-19T14:24:30;17.00;65.90
23291;DHT22;11814;44.686;10.842;2023-11-19T14:26:56;16.90;65.70
23291;DHT22;11814;44.686;10.842;2023-11-19T14:29:24;16.90;65.90
23291;DHT22;11814;44.686;10.842;2023-11-19T14:31:52;16.90;66.10
23291;DHT22;11814;44.686;10.842;2023-11-19T14:34:22;16.80;66.20
23291;DHT22;11814;44.686;10.842;2023-11-19T14:36:48;16.80;66.30
23291;DHT22;11814;44.686;10.842;2023-11-19T14:39:14;16.80;66.60
23291;DHT22;11814;44.686;10.842;2023-11-19T14:41:40;16.80;66.90
23291;DHT22;11814;44.686;10.842;2023-11-19T14:44:05;16.70;67.00
23291;DHT22;11814;44.686;10.842;2023-11-19T14:46:31;16.70;67.40
23291;DHT22;11814;44.686;10.842;2023-11-19T14:48:57;16.60;67.70
23291;DHT22;11814;44.686;10.842;2023-11-19T14:51:22;16.60;68.00
23291;DHT22;11814;44.686;10.842;2023-11-19T14:53:48;16.50;68.30
23291;DHT22;11814;44.686;10.842;2023-11-19T14:56:14;16.50;69.30
23291;DHT22;11814;44.686;10.842;2023-11-19T14:58:40;16.50;69.00
23291;DHT22;11814;44.686;10.842;2023-11-19T15:01:06;16.50;69.20
23291;DHT22;11814;44.686;10.842;2023-11-19T15:03:32;16.50;69.60
23291;DHT22;11814;44.686;10.842;2023-11-19T15:05:58;16.40;69.80
23291;DHT22;11814;44.686;10.842;2023-11-19T15:08:25;16.40;70.30
23291;DHT22;11814;44.686;10.842;2023-11-19T15:10:51;16.20;70.70
23291;DHT22;11814;44.686;10.842;2023-11-19T15:13:16;16.20;71.20
23291;DHT22;11814;44.686;10.842;2023-11-19T15:15:42;16.20;71.50
23291;DHT22;11814;44.686;10.842;2023-11-19T15:18:08;16.10;71.70
23291;DHT22;11814;44.686;10.842;2023-11-19T15:20:35;16.10;72.00
23291;DHT22;11814;44.686;10.842;2023-11-19T15:23:01;16.00;72.20
23291;DHT22;11814;44.686;10.842;2023-11-19T15:25:27;15.90;72.60
23291;DHT22;11814;44.686;10.842;2023-11-19T15:27:53;15.90;73.10
23291;DHT22;11814;44.686;10.842;2023-11-19T15:30:19;15.80;73.50
23291;DHT22;11814;44.686;10.842;2023-11-19T15:32:44;15.70;73.80
23291;DHT22;11814;44.686;10.842;2023-11-19T15:35:10;15.70;74.20
23291;DHT22;11814;44.686;10.842;2023-11-19T15:37:36;15.60;74.70
23291;DHT22;11814;44.686;10.842;2023-11-19T15:40:03;15.50;74.90
23291;DHT22;11814;44.686;10.842;2023-11-19T15:42:31;15.50;75.40
23291;DHT22;11814;44.686;10.842;2023-11-19T15:44:57;15.30;76.00
23291;DHT22;11814;44.686;10.842;2023-11-19T15:47:22;15.20;76.50
23291;DHT22;11814;44.686;10.842;2023-11-19T15:49:49;15.10;77.00